Terminal Aerodrome Forecast
Issued by NWS

Home | Current Version | Previous Version | Text Only | Print | Product List | Glossary Off
Versions: 1 2 3 4 5 6 7 8 9 10 11 12 13 14 15 16 17

000
FTUS43 KMPX 201742
TAFRNH
TAF
KRNH 201742Z 2018/2118 08012G18KT 4SM RA BR OVC025
     FM202200 08012G18KT 3SM -RA BR OVC008
     FM210200 09008KT 2SM -DZ BR OVC005
     FM211000 21006KT 3SM -RA BR OVC005
     FM211600 26009KT P6SM OVC010=

USA.gov is the U.S. government's official web portal to all federal, state and local government web resources and services.